Time;durP1;ratioP1;P1;durP2;ratioP2;P2;SDS_P1;SDS_P2;PMS_P1;PMS_P2;Temp;Humidity;BMP_temperature;BMP_pressure;BME280_temperature;BME280_humidity;BME280_pressure;Samples;Min_cycle;Max_cycle;Signal;HPM_P1;HPM_P2
2023/10/15 00:01:27;;;;;;;8.57;2.63;;;;;;;;;;5012367;28;20089;-75
2023/10/15 00:03:52;;;;;;;6.47;2.30;;;;;;;;;;5013743;28;20626;-74
2023/10/15 00:06:17;;;;;;;2.72;1.73;;;;;;;;;;5015554;28;20090;-75
2023/10/15 00:08:43;;;;;;;9.98;1.90;;;;;;;;;;5018083;28;20072;-75
2023/10/15 00:11:13;;;;;;;5.50;2.10;;;;;;;;;;5017051;28;20030;-74
2023/10/15 00:13:38;;;;;;;5.18;1.63;;;;;;;;;;5013366;28;20117;-75
2023/10/15 00:16:04;;;;;;;4.95;1.83;;;;;;;;;;5013480;28;20116;-74
2023/10/15 00:18:29;;;;;;;1.92;1.65;;;;;;;;;;5018196;28;20033;-75
2023/10/15 00:21:00;;;;;;;5.18;1.95;;;;;;;;;;5015209;28;20525;-75
2023/10/15 00:23:30;;;;;;;4.95;1.67;;;;;;;;;;5013553;28;20042;-75
2023/10/15 00:25:59;;;;;;;4.63;1.77;;;;;;;;;;5011169;28;20036;-75
2023/10/15 00:28:27;;;;;;;2.05;1.70;;;;;;;;;;5010138;28;20046;-74
2023/10/15 00:30:53;;;;;;;6.55;2.13;;;;;;;;;;5008497;28;20086;-75
2023/10/15 00:33:19;;;;;;;5.97;1.90;;;;;;;;;;5018055;28;20025;-74
2023/10/15 00:35:49;;;;;;;4.90;1.90;;;;;;;;;;5012852;28;20014;-74
2023/10/15 00:38:19;;;;;;;13.18;1.92;;;;;;;;;;5012474;28;20083;-75
2023/10/15 00:40:45;;;;;;;8.57;1.80;;;;;;;;;;5007991;28;20065;-75
2023/10/15 00:43:15;;;;;;;5.13;1.63;;;;;;;;;;5013717;28;20549;-75
2023/10/15 00:45:44;;;;;;;4.70;1.65;;;;;;;;;;5009164;28;20042;-74
2023/10/15 00:48:12;;;;;;;5.07;1.65;;;;;;;;;;5008844;28;20510;-75
2023/10/15 00:50:40;;;;;;;7.07;1.65;;;;;;;;;;5017386;28;20120;-74
2023/10/15 00:53:22;;;;;;;4.78;1.60;;;;;;;;;;5018509;28;20037;-74
2023/10/15 00:56:03;;;;;;;4.93;1.33;;;;;;;;;;5014093;28;20041;-74
2023/10/15 00:58:38;;;;;;;4.68;1.73;;;;;;;;;;5009481;28;20030;-73
2023/10/15 01:03:48;;;;;;;8.05;1.92;;;;;;;;;;5016099;28;20103;-74
2023/10/15 01:06:30;;;;;;;3.40;1.58;;;;;;;;;;5021113;28;20029;-74
2023/10/15 01:09:08;;;;;;;4.05;1.52;;;;;;;;;;5020749;28;20084;-74
2023/10/15 01:11:35;;;;;;;7.68;1.20;;;;;;;;;;5020652;28;20046;-73
2023/10/15 01:14:00;;;;;;;3.03;1.60;;;;;;;;;;5013706;28;20038;-74
2023/10/15 01:16:31;;;;;;;7.32;2.17;;;;;;;;;;5017197;28;20026;-74
2023/10/15 01:21:58;;;;;;;9.02;1.30;;;;;;;;;;5019859;28;20121;-74
2023/10/15 01:24:27;;;;;;;2.05;1.20;;;;;;;;;;5018856;28;20038;-74
2023/10/15 01:27:09;;;;;;;5.45;1.27;;;;;;;;;;5020668;28;20013;-74
2023/10/15 01:29:45;;;;;;;4.00;1.23;;;;;;;;;;5010058;28;20050;-74
2023/10/15 01:32:18;;;;;;;2.92;1.20;;;;;;;;;;5009315;28;20056;-75
2023/10/15 01:34:44;;;;;;;1.85;1.38;;;;;;;;;;5011784;28;20034;-74
2023/10/15 01:37:21;;;;;;;5.22;1.30;;;;;;;;;;5015505;28;20224;-75
2023/10/15 01:39:51;;;;;;;4.97;1.50;;;;;;;;;;5015338;28;20112;-75
2023/10/15 01:42:32;;;;;;;11.13;2.13;;;;;;;;;;5023987;28;20049;-75
2023/10/15 01:48:30;;;;;;;5.00;1.70;;;;;;;;;;5025605;28;20044;-74
2023/10/15 01:50:32;;;;;;;3.90;1.50;;;;;;;;;;4994566;28;20145;-75
2023/10/15 01:53:01;;;;;;;4.75;1.45;;;;;;;;;;5024293;28;20080;-74
2023/10/15 01:55:28;;;;;;;7.47;1.42;;;;;;;;;;5020219;28;20073;-74
2023/10/15 01:58:00;;;;;;;4.68;1.58;;;;;;;;;;5027426;28;20458;-75
2023/10/15 02:03:06;;;;;;;1.20;1.10;;;;;;;;;;5023471;28;20017;-74
2023/10/15 02:05:41;;;;;;;1.73;1.30;;;;;;;;;;5025979;28;20033;-75
2023/10/15 02:08:24;;;;;;;9.07;1.60;;;;;;;;;;5013404;28;20080;-75
2023/10/15 02:10:52;;;;;;;4.00;1.15;;;;;;;;;;5012023;28;20053;-74
2023/10/15 02:13:17;;;;;;;5.72;1.50;;;;;;;;;;5013433;28;20137;-74
2023/10/15 02:15:43;;;;;;;6.72;1.55;;;;;;;;;;5008730;28;20117;-74
2023/10/15 02:18:14;;;;;;;2.88;1.30;;;;;;;;;;5017303;28;20117;-75
2023/10/15 02:23:19;;;;;;;5.32;1.45;;;;;;;;;;5014749;28;20819;-75
2023/10/15 02:25:46;;;;;;;5.80;1.52;;;;;;;;;;5012343;28;20116;-74
2023/10/15 02:28:25;;;;;;;4.70;1.40;;;;;;;;;;5013194;28;20088;-74
2023/10/15 02:33:29;;;;;;;4.03;1.45;;;;;;;;;;5028218;28;20119;-74
2023/10/15 02:35:58;;;;;;;4.07;1.83;;;;;;;;;;5024886;28;20046;-74
2023/10/15 02:38:26;;;;;;;6.78;1.60;;;;;;;;;;5026092;28;20025;-74
2023/10/15 02:41:05;;;;;;;6.25;1.77;;;;;;;;;;5023241;28;20061;-74
2023/10/15 02:43:32;;;;;;;3.15;1.50;;;;;;;;;;5018487;28;20038;-74
2023/10/15 02:46:01;;;;;;;3.80;1.40;;;;;;;;;;5022000;28;20528;-75
2023/10/15 02:48:31;;;;;;;7.13;1.40;;;;;;;;;;5022280;28;20048;-74
2023/10/15 02:53:34;;;;;;;2.58;1.40;;;;;;;;;;5026416;28;20048;-76
2023/10/15 02:56:00;;;;;;;4.65;1.33;;;;;;;;;;5026411;28;20038;-77
2023/10/15 02:58:28;;;;;;;4.30;1.33;;;;;;;;;;5025672;28;20409;-74
2023/10/15 03:00:59;;;;;;;6.00;1.42;;;;;;;;;;5016165;28;20548;-74
2023/10/15 03:03:32;;;;;;;5.22;1.55;;;;;;;;;;5025399;28;20124;-75
2023/10/15 03:05:58;;;;;;;10.32;1.48;;;;;;;;;;5024279;28;20482;-74
2023/10/15 03:08:28;;;;;;;8.40;1.90;;;;;;;;;;5025387;28;20033;-76
2023/10/15 03:11:01;;;;;;;4.88;1.70;;;;;;;;;;5023738;28;20041;-76
2023/10/15 03:13:26;;;;;;;6.03;1.42;;;;;;;;;;5018596;28;20128;-75
2023/10/15 03:15:52;;;;;;;5.25;1.70;;;;;;;;;;5008849;28;20224;-75
2023/10/15 03:18:28;;;;;;;3.58;1.30;;;;;;;;;;5019843;28;20393;-74
2023/10/15 03:21:09;;;;;;;1.60;1.25;;;;;;;;;;5021555;28;20026;-74
2023/10/15 03:23:35;;;;;;;1.90;1.20;;;;;;;;;;5020476;28;20045;-74
2023/10/15 03:26:00;;;;;;;5.32;1.23;;;;;;;;;;5024575;28;20044;-74
2023/10/15 03:28:26;;;;;;;4.43;1.33;;;;;;;;;;5022037;28;20034;-75
2023/10/15 03:30:54;;;;;;;7.65;1.58;;;;;;;;;;5019620;28;20037;-75
2023/10/15 03:33:22;;;;;;;5.13;1.20;;;;;;;;;;5021289;28;20103;-74
2023/10/15 03:35:54;;;;;;;7.43;1.73;;;;;;;;;;5025140;28;20030;-74
2023/10/15 03:38:23;;;;;;;3.33;1.48;;;;;;;;;;5023813;28;20029;-76
2023/10/15 03:41:06;;;;;;;3.72;1.60;;;;;;;;;;5023496;28;20045;-75
2023/10/15 03:43:34;;;;;;;5.30;1.48;;;;;;;;;;5019619;28;20600;-74
2023/10/15 03:46:10;;;;;;;5.78;1.52;;;;;;;;;;5021632;28;20034;-74
2023/10/15 03:48:47;;;;;;;7.15;1.40;;;;;;;;;;5025092;28;20102;-74
2023/10/15 03:51:20;;;;;;;3.20;1.20;;;;;;;;;;5016500;28;20025;-74
2023/10/15 03:53:49;;;;;;;1.48;1.20;;;;;;;;;;5021983;28;20056;-74
2023/10/15 03:56:18;;;;;;;3.58;1.38;;;;;;;;;;5026461;28;20171;-74
2023/10/15 03:58:44;;;;;;;6.53;1.48;;;;;;;;;;5021001;28;20099;-75
2023/10/15 04:01:16;;;;;;;6.68;1.40;;;;;;;;;;5020542;28;20042;-76
2023/10/15 04:03:47;;;;;;;3.70;1.20;;;;;;;;;;5022412;28;20068;-76
2023/10/15 04:06:14;;;;;;;3.28;1.35;;;;;;;;;;5021020;28;20660;-76
2023/10/15 04:08:59;;;;;;;1.40;1.17;;;;;;;;;;5017237;28;20040;-75
2023/10/15 04:11:29;;;;;;;8.05;1.45;;;;;;;;;;5023525;28;20296;-75
2023/10/15 04:13:56;;;;;;;4.53;1.13;;;;;;;;;;5013367;28;20045;-75
2023/10/15 04:16:22;;;;;;;0.75;0.73;;;;;;;;;;5021837;28;20405;-75
2023/10/15 04:18:48;;;;;;;2.22;1.25;;;;;;;;;;5019499;28;20034;-75
2023/10/15 04:21:16;;;;;;;2.28;1.25;;;;;;;;;;5012476;28;20017;-75
2023/10/15 04:23:44;;;;;;;3.70;1.30;;;;;;;;;;5013298;28;20393;-75
2023/10/15 04:26:11;;;;;;;3.22;1.45;;;;;;;;;;5013179;28;20041;-76
2023/10/15 04:28:37;;;;;;;1.05;0.90;;;;;;;;;;5007808;28;20029;-75
2023/10/15 04:31:11;;;;;;;1.20;1.10;;;;;;;;;;5006613;28;20091;-75
2023/10/15 04:33:41;;;;;;;5.40;1.08;;;;;;;;;;5010213;28;20026;-75
2023/10/15 04:36:09;;;;;;;7.22;1.48;;;;;;;;;;5017270;28;20067;-75
2023/10/15 04:38:38;;;;;;;8.88;1.55;;;;;;;;;;5014226;28;20017;-75
2023/10/15 04:41:03;;;;;;;2.80;1.45;;;;;;;;;;5009199;28;20044;-75
2023/10/15 04:43:40;;;;;;;3.72;1.45;;;;;;;;;;5006729;28;20542;-75
2023/10/15 04:46:07;;;;;;;3.05;1.20;;;;;;;;;;5016474;28;20102;-75
2023/10/15 04:48:36;;;;;;;2.40;1.40;;;;;;;;;;5013458;28;20091;-75
2023/10/15 04:51:06;;;;;;;5.28;1.33;;;;;;;;;;5019463;28;20091;-76
2023/10/15 04:53:31;;;;;;;3.33;1.42;;;;;;;;;;5023091;28;20428;-75
2023/10/15 04:55:57;;;;;;;4.00;1.67;;;;;;;;;;5021551;28;20041;-75
2023/10/15 04:58:27;;;;;;;3.75;1.73;;;;;;;;;;5020608;28;20022;-75
2023/10/15 05:00:54;;;;;;;2.63;1.15;;;;;;;;;;5015501;28;20045;-75
2023/10/15 05:03:20;;;;;;;7.88;1.52;;;;;;;;;;5017958;28;20032;-75
2023/10/15 05:05:46;;;;;;;2.78;1.23;;;;;;;;;;5018863;28;20037;-75
2023/10/15 05:08:12;;;;;;;6.50;1.65;;;;;;;;;;5020021;28;20091;-75
2023/10/15 05:10:49;;;;;;;3.50;1.15;;;;;;;;;;5020069;28;20073;-75
2023/10/15 05:13:16;;;;;;;5.75;1.55;;;;;;;;;;5019553;28;20405;-75
2023/10/15 05:15:45;;;;;;;7.93;1.40;;;;;;;;;;5017984;28;20037;-75
2023/10/15 05:18:10;;;;;;;3.30;1.38;;;;;;;;;;5018434;28;20521;-75
2023/10/15 05:20:38;;;;;;;2.75;1.15;;;;;;;;;;5018385;28;20160;-75
2023/10/15 05:23:04;;;;;;;4.65;1.20;;;;;;;;;;5010717;28;20555;-75
2023/10/15 05:25:30;;;;;;;3.95;1.33;;;;;;;;;;5011754;28;20120;-75
2023/10/15 05:27:55;;;;;;;2.90;1.30;;;;;;;;;;5014071;28;20437;-75
2023/10/15 05:30:21;;;;;;;4.90;1.50;;;;;;;;;;5020391;28;20502;-75
2023/10/15 05:32:48;;;;;;;4.22;1.30;;;;;;;;;;5021314;28;20030;-75
2023/10/15 05:35:13;;;;;;;2.83;1.05;;;;;;;;;;5021788;28;20045;-75
2023/10/15 05:37:42;;;;;;;5.85;1.00;;;;;;;;;;5016351;28;20030;-74
2023/10/15 05:40:08;;;;;;;2.65;1.05;;;;;;;;;;5018656;28;20115;-75
2023/10/15 05:42:34;;;;;;;1.50;0.88;;;;;;;;;;5018700;28;20030;-75
2023/10/15 05:45:00;;;;;;;2.85;0.85;;;;;;;;;;5018111;28;20217;-74
2023/10/15 05:47:25;;;;;;;2.38;1.15;;;;;;;;;;5020559;28;20072;-75
2023/10/15 05:49:51;;;;;;;1.75;0.90;;;;;;;;;;5022088;28;20404;-75
2023/10/15 05:52:16;;;;;;;3.30;0.82;;;;;;;;;;5028144;28;20040;-75
2023/10/15 05:54:42;;;;;;;3.55;1.20;;;;;;;;;;5025260;28;20025;-75
2023/10/15 05:57:07;;;;;;;4.97;1.10;;;;;;;;;;5017297;28;20057;-74
2023/10/15 05:59:36;;;;;;;2.38;1.27;;;;;;;;;;5025311;28;20018;-74
2023/10/15 06:02:02;;;;;;;2.05;1.00;;;;;;;;;;5019303;28;20425;-75
2023/10/15 06:04:27;;;;;;;2.78;1.15;;;;;;;;;;5018045;28;20042;-74
2023/10/15 06:06:52;;;;;;;3.33;1.33;;;;;;;;;;5020343;28;20496;-75
2023/10/15 06:09:18;;;;;;;5.13;1.30;;;;;;;;;;5024642;28;20049;-75
2023/10/15 06:11:43;;;;;;;3.67;0.90;;;;;;;;;;5013209;28;21229;-75
2023/10/15 06:14:08;;;;;;;6.35;1.20;;;;;;;;;;5014870;28;20046;-75
2023/10/15 06:16:36;;;;;;;0.75;0.75;;;;;;;;;;5022233;28;20552;-75
2023/10/15 06:19:01;;;;;;;0.90;0.90;;;;;;;;;;5017434;28;20056;-77
2023/10/15 06:21:27;;;;;;;1.70;1.05;;;;;;;;;;5018801;28;20034;-75
2023/10/15 06:23:52;;;;;;;4.05;1.40;;;;;;;;;;5018480;28;20129;-75
2023/10/15 06:26:18;;;;;;;4.40;1.08;;;;;;;;;;5015475;28;20034;-75
2023/10/15 06:28:43;;;;;;;2.90;1.15;;;;;;;;;;5022465;28;20463;-75
2023/10/15 06:31:09;;;;;;;2.08;1.25;;;;;;;;;;5022068;28;20033;-75
2023/10/15 06:33:35;;;;;;;3.88;1.10;;;;;;;;;;5020777;28;20959;-76
2023/10/15 06:36:00;;;;;;;3.72;1.15;;;;;;;;;;5014599;28;20029;-75
2023/10/15 06:38:26;;;;;;;2.03;1.30;;;;;;;;;;5017913;28;20125;-74
2023/10/15 06:40:52;;;;;;;2.33;0.90;;;;;;;;;;5014576;28;20466;-75
2023/10/15 06:43:18;;;;;;;2.75;1.00;;;;;;;;;;5023660;28;20528;-76
2023/10/15 06:45:43;;;;;;;4.20;1.20;;;;;;;;;;5017194;28;20038;-76
2023/10/15 06:48:09;;;;;;;3.25;1.35;;;;;;;;;;5025776;28;20386;-76
2023/10/15 06:50:34;;;;;;;2.50;1.10;;;;;;;;;;5018889;28;20067;-75
2023/10/15 06:53:05;;;;;;;1.30;1.20;;;;;;;;;;5011297;28;20656;-76
2023/10/15 06:55:31;;;;;;;1.75;1.05;;;;;;;;;;5019259;28;20083;-76
2023/10/15 06:57:56;;;;;;;0.90;0.90;;;;;;;;;;5022468;28;20080;-76
2023/10/15 07:00:22;;;;;;;1.30;1.00;;;;;;;;;;5018503;28;20049;-76
2023/10/15 07:02:51;;;;;;;3.20;1.23;;;;;;;;;;5015905;28;20020;-75
2023/10/15 07:05:16;;;;;;;9.82;1.30;;;;;;;;;;5021119;28;20069;-75
2023/10/15 07:07:45;;;;;;;5.10;1.42;;;;;;;;;;5015367;28;20681;-76
2023/10/15 07:10:12;;;;;;;3.80;1.10;;;;;;;;;;5015200;28;20038;-76
2023/10/15 07:12:37;;;;;;;2.78;1.00;;;;;;;;;;5021499;28;20449;-75
2023/10/15 07:15:05;;;;;;;3.42;1.35;;;;;;;;;;5019859;28;20029;-75
2023/10/15 07:17:30;;;;;;;3.13;0.90;;;;;;;;;;5024588;28;20045;-75
2023/10/15 07:19:56;;;;;;;3.10;0.90;;;;;;;;;;5025019;28;20136;-75
2023/10/15 07:22:21;;;;;;;1.08;0.80;;;;;;;;;;5022329;28;20406;-75
2023/10/15 07:24:46;;;;;;;1.00;0.90;;;;;;;;;;5015582;28;20034;-75
2023/10/15 07:27:12;;;;;;;1.15;1.15;;;;;;;;;;5012819;28;20128;-75
2023/10/15 07:29:39;;;;;;;1.05;0.93;;;;;;;;;;5020296;28;20036;-75
2023/10/15 07:32:05;;;;;;;0.98;0.90;;;;;;;;;;5013239;28;20075;-75
2023/10/15 07:34:30;;;;;;;1.73;1.10;;;;;;;;;;5022456;28;20541;-75
2023/10/15 07:36:56;;;;;;;3.97;1.15;;;;;;;;;;5018870;28;20084;-77
2023/10/15 07:39:25;;;;;;;1.08;1.08;;;;;;;;;;5014342;28;20056;-76
2023/10/15 07:41:51;;;;;;;1.25;1.10;;;;;;;;;;5019400;28;20052;-76
2023/10/15 07:44:17;;;;;;;0.85;0.80;;;;;;;;;;5020660;28;20099;-76
2023/10/15 07:46:42;;;;;;;2.13;1.00;;;;;;;;;;5020608;28;20037;-75
2023/10/15 07:49:16;;;;;;;2.53;1.08;;;;;;;;;;5014738;28;20073;-76
2023/10/15 07:51:41;;;;;;;4.88;1.17;;;;;;;;;;5010697;28;20091;-75
2023/10/15 07:54:07;;;;;;;1.17;1.08;;;;;;;;;;5007485;28;20033;-74
2023/10/15 07:56:34;;;;;;;1.85;1.08;;;;;;;;;;5008250;28;20386;-75
2023/10/15 07:59:04;;;;;;;0.95;0.77;;;;;;;;;;5010942;28;20068;-75
2023/10/15 08:01:29;;;;;;;1.15;0.93;;;;;;;;;;5009863;28;20497;-75
2023/10/15 08:03:55;;;;;;;2.35;0.90;;;;;;;;;;5009761;28;20050;-77
2023/10/15 08:06:23;;;;;;;1.85;0.80;;;;;;;;;;5012880;28;20087;-76
2023/10/15 08:08:49;;;;;;;1.48;0.95;;;;;;;;;;5016123;28;20022;-76
2023/10/15 08:11:14;;;;;;;1.13;0.85;;;;;;;;;;5015069;28;20044;-76
2023/10/15 08:13:39;;;;;;;2.20;0.98;;;;;;;;;;5017145;28;20172;-76
2023/10/15 08:16:05;;;;;;;1.33;1.00;;;;;;;;;;5008085;28;20049;-77
2023/10/15 08:18:30;;;;;;;1.08;0.93;;;;;;;;;;5011612;28;20076;-76
2023/10/15 08:20:55;;;;;;;2.60;1.20;;;;;;;;;;5013416;28;20037;-76
2023/10/15 08:23:21;;;;;;;1.23;0.90;;;;;;;;;;5014879;28;20042;-76
2023/10/15 08:25:48;;;;;;;6.07;1.10;;;;;;;;;;5009992;28;20108;-76
2023/10/15 08:28:14;;;;;;;1.50;1.00;;;;;;;;;;5013766;28;20167;-76
2023/10/15 08:30:41;;;;;;;4.00;1.00;;;;;;;;;;5010009;28;20113;-77
2023/10/15 08:33:10;;;;;;;2.83;0.68;;;;;;;;;;5007722;28;20025;-76
2023/10/15 08:35:36;;;;;;;3.22;0.93;;;;;;;;;;5013972;28;20032;-76
2023/10/15 08:38:02;;;;;;;1.95;0.73;;;;;;;;;;5005094;28;20391;-76
2023/10/15 08:40:28;;;;;;;0.98;0.90;;;;;;;;;;5009790;28;20171;-76
2023/10/15 08:43:16;;;;;;;1.10;0.98;;;;;;;;;;5004186;28;20242;-76
2023/10/15 08:45:45;;;;;;;1.38;1.10;;;;;;;;;;5010314;28;20046;-76
2023/10/15 08:48:11;;;;;;;2.30;1.10;;;;;;;;;;5008443;28;20254;-76
2023/10/15 08:50:37;;;;;;;0.85;0.82;;;;;;;;;;5011084;28;20021;-76
2023/10/15 08:53:04;;;;;;;1.05;0.88;;;;;;;;;;5004534;28;20379;-76
2023/10/15 08:55:33;;;;;;;0.57;0.57;;;;;;;;;;5013529;28;20060;-75
2023/10/15 08:57:59;;;;;;;1.25;0.70;;;;;;;;;;5021722;28;20037;-75
2023/10/15 09:00:25;;;;;;;1.42;0.70;;;;;;;;;;5023096;28;20167;-74
2023/10/15 09:02:54;;;;;;;0.70;0.70;;;;;;;;;;5024645;28;20047;-74
2023/10/15 09:05:20;;;;;;;1.85;0.90;;;;;;;;;;5022673;28;20049;-75
2023/10/15 09:07:47;;;;;;;1.75;0.95;;;;;;;;;;5021488;28;20072;-75
2023/10/15 09:10:14;;;;;;;0.68;0.65;;;;;;;;;;5022223;28;20034;-74
2023/10/15 09:12:39;;;;;;;1.95;0.82;;;;;;;;;;5024034;28;20026;-74
2023/10/15 09:15:15;;;;;;;0.70;0.70;;;;;;;;;;5025146;28;20509;-75
2023/10/15 09:17:46;;;;;;;3.67;1.15;;;;;;;;;;5020746;28;20025;-74
2023/10/15 09:20:12;;;;;;;1.85;1.02;;;;;;;;;;5019832;28;20132;-76
2023/10/15 09:22:38;;;;;;;1.85;0.80;;;;;;;;;;5024136;28;20037;-74
2023/10/15 09:25:05;;;;;;;2.75;1.20;;;;;;;;;;5021785;28;20125;-75
2023/10/15 09:27:31;;;;;;;1.02;0.70;;;;;;;;;;5022919;28;20041;-74
2023/10/15 09:30:18;;;;;;;0.73;0.73;;;;;;;;;;5027501;28;20486;-74
2023/10/15 09:32:45;;;;;;;0.60;0.60;;;;;;;;;;5026744;28;20041;-74
2023/10/15 09:35:13;;;;;;;1.50;0.68;;;;;;;;;;5025391;28;20029;-75
2023/10/15 09:37:39;;;;;;;3.30;1.08;;;;;;;;;;5025974;28;20068;-74
2023/10/15 09:40:09;;;;;;;2.00;0.90;;;;;;;;;;5016789;28;20168;-76
2023/10/15 09:42:38;;;;;;;1.13;0.70;;;;;;;;;;5028680;28;20029;-75
2023/10/15 09:45:05;;;;;;;4.57;0.90;;;;;;;;;;5028538;28;20068;-75
2023/10/15 09:47:32;;;;;;;2.38;0.80;;;;;;;;;;5028061;28;20112;-75
2023/10/15 09:49:59;;;;;;;0.80;0.80;;;;;;;;;;5019586;28;20050;-75
2023/10/15 09:54:55;;;;;;;1.30;1.00;;;;;;;;;;4998793;28;20042;-79
2023/10/15 09:57:21;;;;;;;5.07;1.45;;;;;;;;;;4999640;28;20073;-81
2023/10/15 09:59:53;;;;;;;1.20;0.82;;;;;;;;;;5001302;28;20034;-80
2023/10/15 10:02:35;;;;;;;1.73;0.90;;;;;;;;;;5000012;28;20102;-80
2023/10/15 10:05:41;;;;;;;1.70;1.20;;;;;;;;;;4999275;28;20423;-81
2023/10/15 10:08:35;;;;;;;0.85;0.70;;;;;;;;;;4999451;28;20046;-80
2023/10/15 10:11:19;;;;;;;2.22;1.23;;;;;;;;;;4999511;28;20034;-79
2023/10/15 10:13:57;;;;;;;4.00;1.83;;;;;;;;;;4999825;28;20126;-80
2023/10/15 10:16:27;;;;;;;3.67;1.50;;;;;;;;;;4999377;28;20304;-80
2023/10/15 10:18:53;;;;;;;5.18;1.80;;;;;;;;;;4999632;28;20034;-81
2023/10/15 10:21:19;;;;;;;4.03;2.10;;;;;;;;;;5000109;28;20022;-82
2023/10/15 10:23:49;;;;;;;2.58;1.40;;;;;;;;;;5001061;28;20406;-84
2023/10/15 10:26:14;;;;;;;3.10;1.40;;;;;;;;;;5008220;28;20181;-82
2023/10/15 10:28:44;;;;;;;2.15;0.75;;;;;;;;;;5012041;28;20034;-83
2023/10/15 10:31:11;;;;;;;2.22;1.13;;;;;;;;;;4995316;28;20498;-82
2023/10/15 10:33:46;;;;;;;3.38;1.02;;;;;;;;;;5001063;28;20509;-82
2023/10/15 10:36:21;;;;;;;0.93;0.90;;;;;;;;;;5010160;28;20133;-82
2023/10/15 10:38:55;;;;;;;2.03;0.93;;;;;;;;;;5006235;28;20045;-82
2023/10/15 10:41:21;;;;;;;1.70;1.15;;;;;;;;;;5006551;28;20046;-84
2023/10/15 10:43:46;;;;;;;1.88;0.88;;;;;;;;;;5000941;28;20053;-83
2023/10/15 10:46:22;;;;;;;2.70;1.02;;;;;;;;;;5009286;28;20077;-83
2023/10/15 10:49:05;;;;;;;6.45;1.42;;;;;;;;;;5007793;28;20034;-83
2023/10/15 10:51:33;;;;;;;4.20;1.92;;;;;;;;;;5010631;28;20037;-82
2023/10/15 10:53:58;;;;;;;0.77;0.60;;;;;;;;;;5007443;28;20026;-83
2023/10/15 10:56:44;;;;;;;0.63;0.63;;;;;;;;;;5013118;28;20125;-81
2023/10/15 10:59:14;;;;;;;1.23;1.10;;;;;;;;;;5021785;28;20440;-84
2023/10/15 11:01:43;;;;;;;3.80;0.90;;;;;;;;;;5014860;28;20038;-82
2023/10/15 11:04:10;;;;;;;1.10;1.00;;;;;;;;;;5017504;28;20042;-82
2023/10/15 11:06:42;;;;;;;0.70;0.70;;;;;;;;;;5001630;28;20041;-83
2023/10/15 11:09:20;;;;;;;1.38;0.68;;;;;;;;;;5000619;28;20058;-81
2023/10/15 11:11:50;;;;;;;0.70;0.70;;;;;;;;;;5002197;28;20036;-82
2023/10/15 11:14:16;;;;;;;1.35;0.80;;;;;;;;;;4999907;28;20038;-83
2023/10/15 11:16:43;;;;;;;0.80;0.80;;;;;;;;;;5000770;28;20098;-81
2023/10/15 11:19:15;;;;;;;1.65;1.05;;;;;;;;;;5000976;28;20049;-80
2023/10/15 11:21:42;;;;;;;1.70;0.80;;;;;;;;;;5000965;28;20030;-81
2023/10/15 11:24:09;;;;;;;0.95;0.70;;;;;;;;;;5000292;28;20086;-79
2023/10/15 11:26:42;;;;;;;0.85;0.77;;;;;;;;;;5001184;28;20069;-82
2023/10/15 11:29:11;;;;;;;0.80;0.80;;;;;;;;;;5000188;28;20561;-81
2023/10/15 11:31:38;;;;;;;0.77;0.70;;;;;;;;;;5001335;28;20035;-81
2023/10/15 11:34:05;;;;;;;1.83;0.90;;;;;;;;;;5001182;28;20084;-79
2023/10/15 11:36:34;;;;;;;1.02;0.80;;;;;;;;;;4998367;28;20109;-80
2023/10/15 11:39:03;;;;;;;1.83;1.05;;;;;;;;;;5001267;28;20014;-80
2023/10/15 11:41:32;;;;;;;0.88;0.88;;;;;;;;;;4999896;28;20031;-82
2023/10/15 11:44:02;;;;;;;0.90;0.90;;;;;;;;;;5000000;28;20057;-82
2023/10/15 11:46:30;;;;;;;1.02;0.93;;;;;;;;;;4998365;28;20039;-81
2023/10/15 11:48:58;;;;;;;0.70;0.70;;;;;;;;;;5000083;28;20046;-81
2023/10/15 11:51:25;;;;;;;1.60;0.90;;;;;;;;;;5000477;28;20042;-81
2023/10/15 11:53:50;;;;;;;1.33;0.90;;;;;;;;;;5000698;28;20109;-82
2023/10/15 11:56:20;;;;;;;1.65;1.10;;;;;;;;;;4998298;28;20073;-82
2023/10/15 11:58:45;;;;;;;1.77;1.00;;;;;;;;;;5000427;28;20268;-80
2023/10/15 12:01:14;;;;;;;1.20;1.02;;;;;;;;;;4999106;28;20041;-81
2023/10/15 12:03:42;;;;;;;3.67;1.38;;;;;;;;;;4999235;28;20100;-80
2023/10/15 12:06:07;;;;;;;1.38;1.15;;;;;;;;;;4974176;28;20290;-79
2023/10/15 12:08:32;;;;;;;1.98;1.13;;;;;;;;;;4964101;28;20022;-80
2023/10/15 12:10:59;;;;;;;2.33;1.40;;;;;;;;;;5001282;28;20046;-79
2023/10/15 12:13:25;;;;;;;2.85;1.20;;;;;;;;;;4998259;28;20045;-80
2023/10/15 12:15:51;;;;;;;3.40;1.17;;;;;;;;;;4999270;28;20161;-79
2023/10/15 12:18:16;;;;;;;1.40;1.30;;;;;;;;;;4999435;28;20041;-79
2023/10/15 12:21:36;;;;;;;2.67;1.30;;;;;;;;;;4999235;28;20188;-80
2023/10/15 12:23:53;;;;;;;1.58;1.00;;;;;;;;;;4996428;28;20144;-79
2023/10/15 12:26:19;;;;;;;1.38;1.02;;;;;;;;;;4998281;28;20104;-81
2023/10/15 12:28:47;;;;;;;2.17;1.33;;;;;;;;;;4999516;28;20037;-80
2023/10/15 12:31:13;;;;;;;1.00;1.00;;;;;;;;;;4999043;28;20034;-80
2023/10/15 12:33:38;;;;;;;1.42;1.10;;;;;;;;;;5016437;28;20030;-82
2023/10/15 12:36:07;;;;;;;1.35;1.25;;;;;;;;;;5004469;28;20049;-83
2023/10/15 12:38:33;;;;;;;7.50;1.70;;;;;;;;;;5008306;28;20492;-83
2023/10/15 12:41:00;;;;;;;1.40;1.30;;;;;;;;;;5012466;28;20042;-84
2023/10/15 12:43:26;;;;;;;2.35;1.40;;;;;;;;;;5005076;28;20026;-82
2023/10/15 12:45:52;;;;;;;1.30;1.23;;;;;;;;;;5004152;28;20046;-82
2023/10/15 12:48:20;;;;;;;2.63;1.23;;;;;;;;;;5002806;28;20030;-82
2023/10/15 12:50:56;;;;;;;1.70;1.55;;;;;;;;;;5003162;28;20037;-82
2023/10/15 12:53:23;;;;;;;10.05;1.40;;;;;;;;;;5005854;28;20038;-78
2023/10/15 12:55:48;;;;;;;1.70;1.25;;;;;;;;;;5015702;28;20044;-80
2023/10/15 12:58:15;;;;;;;1.25;1.17;;;;;;;;;;5007062;28;20112;-81
2023/10/15 13:00:43;;;;;;;1.38;1.27;;;;;;;;;;5000802;28;20065;-83
2023/10/15 13:03:33;;;;;;;1.23;1.10;;;;;;;;;;5004722;28;20030;-83
2023/10/15 13:06:53;;;;;;;1.17;1.17;;;;;;;;;;5003762;28;20026;-81
2023/10/15 13:09:25;;;;;;;2.13;1.25;;;;;;;;;;4955613;28;20456;-81
2023/10/15 13:11:51;;;;;;;1.55;1.20;;;;;;;;;;4997451;28;20026;-79
2023/10/15 13:14:17;;;;;;;1.52;1.20;;;;;;;;;;5003697;28;20375;-80
2023/10/15 13:16:42;;;;;;;3.78;1.25;;;;;;;;;;4995168;28;20046;-80
2023/10/15 13:19:08;;;;;;;2.25;1.42;;;;;;;;;;5004843;28;20037;-82
2023/10/15 13:21:33;;;;;;;2.30;1.80;;;;;;;;;;4999986;28;20105;-79
2023/10/15 13:23:58;;;;;;;3.75;1.30;;;;;;;;;;4994412;28;20506;-81
2023/10/15 13:26:24;;;;;;;2.05;1.15;;;;;;;;;;4988975;28;20057;-83
2023/10/15 13:28:51;;;;;;;1.20;1.10;;;;;;;;;;4995532;28;20046;-82
2023/10/15 13:31:17;;;;;;;1.20;1.10;;;;;;;;;;4996285;28;20122;-81
2023/10/15 13:33:42;;;;;;;1.48;1.10;;;;;;;;;;4995282;28;20110;-81
2023/10/15 13:36:08;;;;;;;2.40;1.13;;;;;;;;;;4994857;28;20081;-82
2023/10/15 13:38:34;;;;;;;1.45;1.20;;;;;;;;;;4996682;28;20018;-81
2023/10/15 13:41:00;;;;;;;2.65;1.27;;;;;;;;;;4995781;28;20171;-82
2023/10/15 13:43:25;;;;;;;1.50;1.17;;;;;;;;;;4998146;28;20166;-82
2023/10/15 13:45:50;;;;;;;1.90;1.30;;;;;;;;;;4990712;28;20145;-82
2023/10/15 13:48:16;;;;;;;3.30;1.52;;;;;;;;;;5003256;28;20128;-79
2023/10/15 13:50:42;;;;;;;1.60;1.05;;;;;;;;;;4998738;28;20557;-80
2023/10/15 13:53:08;;;;;;;8.88;4.20;;;;;;;;;;4995837;28;20109;-83
2023/10/15 13:55:33;;;;;;;26.90;10.90;;;;;;;;;;4995216;28;20090;-79
2023/10/15 13:57:59;;;;;;;8.82;5.30;;;;;;;;;;5005896;28;20100;-80
2023/10/15 14:00:27;;;;;;;1.75;1.48;;;;;;;;;;5000020;28;20039;-82
2023/10/15 14:02:53;;;;;;;1.73;1.63;;;;;;;;;;4998396;28;20061;-82
2023/10/15 14:05:20;;;;;;;6.55;1.70;;;;;;;;;;4995125;28;20046;-82
2023/10/15 14:07:46;;;;;;;4.80;2.72;;;;;;;;;;5000061;28;20053;-81
2023/10/15 14:10:12;;;;;;;2.25;2.05;;;;;;;;;;4994102;28;20066;-83
2023/10/15 14:12:41;;;;;;;3.17;1.65;;;;;;;;;;4993764;28;20062;-80
2023/10/15 14:15:10;;;;;;;8.27;1.58;;;;;;;;;;4999844;28;20036;-80
2023/10/15 14:17:37;;;;;;;5.28;1.88;;;;;;;;;;5001729;28;20018;-79
2023/10/15 14:20:09;;;;;;;6.38;1.83;;;;;;;;;;4999138;28;21509;-80
2023/10/15 14:22:35;;;;;;;1.38;1.25;;;;;;;;;;4999637;28;20069;-83
2023/10/15 14:25:00;;;;;;;3.05;1.40;;;;;;;;;;5001957;28;20569;-82
2023/10/15 14:27:25;;;;;;;4.28;1.52;;;;;;;;;;5001894;28;20040;-82
2023/10/15 14:29:51;;;;;;;8.57;1.60;;;;;;;;;;5004321;28;20030;-80
2023/10/15 14:32:16;;;;;;;1.92;1.60;;;;;;;;;;5001869;28;20058;-82
2023/10/15 14:34:42;;;;;;;7.82;1.95;;;;;;;;;;5001332;28;20042;-83
2023/10/15 14:37:07;;;;;;;4.88;1.65;;;;;;;;;;4999291;28;20046;-82
2023/10/15 14:39:32;;;;;;;2.38;1.60;;;;;;;;;;4999121;28;20130;-82
2023/10/15 14:41:58;;;;;;;2.20;1.80;;;;;;;;;;5001192;28;20425;-81
2023/10/15 14:44:23;;;;;;;3.63;1.92;;;;;;;;;;4997824;28;20038;-81
2023/10/15 14:46:49;;;;;;;2.22;1.58;;;;;;;;;;4998959;28;20407;-81
2023/10/15 14:49:15;;;;;;;4.80;1.88;;;;;;;;;;5000798;28;20109;-81
2023/10/15 14:51:41;;;;;;;5.13;1.67;;;;;;;;;;4996751;28;20073;-81
2023/10/15 14:54:07;;;;;;;2.30;1.70;;;;;;;;;;5001732;28;20018;-81
2023/10/15 14:56:32;;;;;;;5.07;1.63;;;;;;;;;;5003170;28;20032;-80
2023/10/15 14:58:59;;;;;;;1.95;1.52;;;;;;;;;;5001640;28;20041;-80
2023/10/15 15:01:25;;;;;;;3.28;1.60;;;;;;;;;;5009573;28;20034;-81
2023/10/15 15:03:50;;;;;;;3.70;1.77;;;;;;;;;;5004745;28;20328;-79
2023/10/15 15:06:16;;;;;;;4.20;1.80;;;;;;;;;;4999255;28;20026;-81
2023/10/15 15:08:41;;;;;;;4.60;1.85;;;;;;;;;;4999081;28;20104;-82
2023/10/15 15:11:07;;;;;;;6.43;1.83;;;;;;;;;;5004096;28;20049;-82
2023/10/15 15:13:32;;;;;;;1.38;1.27;;;;;;;;;;5002253;28;20137;-81